Aneityum, Vanuatu
Current Conditions -  °F | °C
As of 7:00 PM on Friday 31 Oct 2014 (Local Time) from NVVV Reporting Station
Broken Clouds Broken Clouds  
Wind Chill: 75°   Ceiling: 11000
Heat Index: 75°   Visibility: 6mi
Dew Point: 70°   Wind: 9mph
Humidity: 83%   Direction: 90°E
Pressure: 29.94"   Gusts: NA
Location:  20.23°S, 169.77°E
Report Text: NVVV 310800Z 09008KT 9999 SCT020 BKN110 24/21 Q1014 RMK NIL
Loading
Personal Weather Stations






























Interactive Weather Map
Tropical Storm Tracking
New forecast layout! Learn more

10-Day Weather Forecast

Advertisements
Track Severe Weather on mobile